createdAt,value
2018-08-04T00:01:15.322Z,99845.46
2018-08-04T00:03:45.762Z,99845.12
2018-08-04T00:06:16.199Z,99841.63
2018-08-04T00:08:46.610Z,99847.11
2018-08-04T00:11:17.236Z,99844.58
2018-08-04T00:13:47.746Z,99847.11
2018-08-04T00:16:18.132Z,99841.08
2018-08-04T00:18:48.629Z,99836.64
2018-08-04T00:21:19.007Z,99836.56
2018-08-04T00:23:49.517Z,99835.20
2018-08-04T00:26:19.975Z,99837.47
2018-08-04T00:28:50.465Z,99827.38
2018-08-04T00:31:20.939Z,99829.52
2018-08-04T00:33:51.400Z,99829.52
2018-08-04T00:36:21.948Z,99824.30
2018-08-04T00:38:52.391Z,99819.81
2018-08-04T00:41:22.921Z,99818.87
2018-08-04T00:43:53.506Z,99820.70
2018-08-04T00:46:23.956Z,99824.77
2018-08-04T00:48:54.568Z,99825.58
2018-08-04T00:51:24.987Z,99821.43
2018-08-04T00:53:55.479Z,99825.89
2018-08-04T00:56:25.928Z,99818.43
2018-08-04T00:58:56.420Z,99712.67
2018-08-04T01:01:26.923Z,99818.06
2018-08-04T01:03:57.331Z,99816.39
2018-08-04T01:06:27.720Z,99809.84
2018-08-04T01:08:58.219Z,99816.58
2018-08-04T01:11:28.654Z,99816.75
2018-08-04T01:13:59.054Z,99809.95
2018-08-04T01:16:29.519Z,99810.57
2018-08-04T01:18:59.975Z,99806.01
2018-08-04T01:21:30.379Z,99806.19
2018-08-04T01:24:00.752Z,99804.52
2018-08-04T01:26:31.145Z,99800.09
2018-08-04T01:29:01.555Z,99809.42
2018-08-04T01:31:31.945Z,99805.48
2018-08-04T01:34:02.408Z,99808.42
2018-08-04T01:36:32.890Z,99807.11
2018-08-04T01:39:03.474Z,99808.66
2018-08-04T01:41:33.987Z,99811.22
2018-08-04T01:44:04.634Z,99808.77
2018-08-04T01:46:35.064Z,99810.49
2018-08-04T01:49:05.623Z,99811.11
2018-08-04T01:51:36.070Z,99810.30
2018-08-04T01:54:06.586Z,99811.69
2018-08-04T01:56:37.064Z,99808.27
2018-08-04T01:59:07.530Z,99807.61
2018-08-04T02:01:37.884Z,99805.47
2018-08-04T02:04:08.309Z,99805.89
2018-08-04T02:06:38.697Z,99802.13
2018-08-04T02:09:10.654Z,99802.66
2018-08-04T02:11:41.044Z,99798.05
2018-08-04T02:14:11.447Z,99798.97
2018-08-04T02:16:41.851Z,99797.16
2018-08-04T02:19:12.300Z,99803.33
2018-08-04T02:21:42.771Z,99802.33
2018-08-04T02:24:13.319Z,99804.23
2018-08-04T02:26:43.744Z,99797.46
2018-08-04T02:29:14.142Z,99800.73
2018-08-04T02:31:44.583Z,99799.52
2018-08-04T02:34:15.008Z,99804.54
2018-08-04T02:36:45.472Z,99801.34
2018-08-04T02:39:15.965Z,99807.16
2018-08-04T02:41:46.495Z,99803.66
2018-08-04T02:44:16.896Z,99804.06
2018-08-04T02:46:47.339Z,99806.02
2018-08-04T02:49:17.722Z,99810.30
2018-08-04T02:51:48.256Z,99807.60
2018-08-04T02:54:18.712Z,99802.25
2018-08-04T02:56:49.166Z,99808.88
2018-08-04T02:59:19.564Z,99808.06
2018-08-04T03:01:50.028Z,99807.63
2018-08-04T03:04:20.437Z,99808.34
2018-08-04T03:06:50.880Z,99812.28
2018-08-04T03:09:21.346Z,99812.85
2018-08-04T03:11:51.732Z,99808.85
2018-08-04T03:14:22.160Z,99813.93
2018-08-04T03:16:52.547Z,99819.05
2018-08-04T03:19:23.068Z,99822.00
2018-08-04T03:21:53.451Z,99822.50
2018-08-04T03:24:23.915Z,99819.38
2018-08-04T03:26:54.368Z,99819.23
2018-08-04T03:29:24.815Z,99816.11
2018-08-04T03:31:55.236Z,99812.03
2018-08-04T03:34:25.667Z,99814.16
2018-08-04T03:36:56.200Z,99813.02
2018-08-04T03:39:26.588Z,99821.93
2018-08-04T03:41:57.116Z,99826.21
2018-08-04T03:44:27.502Z,99837.10
2018-08-04T03:46:57.964Z,99834.19
2018-08-04T03:49:28.361Z,99837.26
2018-08-04T03:51:58.857Z,99844.94
2018-08-04T03:54:29.226Z,99846.99
2018-08-04T03:56:59.740Z,99846.19
2018-08-04T03:59:30.264Z,99850.40
2018-08-04T04:02:00.650Z,99852.18
2018-08-04T04:04:31.118Z,99849.12
2018-08-04T04:07:01.564Z,99845.52
2018-08-04T04:09:31.984Z,99848.34
2018-08-04T04:12:02.416Z,99847.20
2018-08-04T04:14:32.822Z,99847.09
2018-08-04T04:17:03.237Z,99851.41
2018-08-04T04:19:33.730Z,99856.05
2018-08-04T04:22:04.232Z,99855.54
2018-08-04T04:24:34.773Z,99854.97
2018-08-04T04:27:05.147Z,99854.33
2018-08-04T04:29:35.564Z,99856.59
2018-08-04T04:32:06.330Z,99859.91
2018-08-04T04:34:36.759Z,99866.39
2018-08-04T04:37:07.220Z,99867.96
2018-08-04T04:39:37.672Z,99863.98
2018-08-04T04:42:08.055Z,99868.48
2018-08-04T04:44:38.490Z,99870.33
2018-08-04T04:47:08.994Z,99877.94
2018-08-04T04:49:39.475Z,99874.62
2018-08-04T04:52:09.907Z,99878.86
2018-08-04T04:54:40.339Z,99879.49
2018-08-04T04:57:10.755Z,99878.06
2018-08-04T04:59:41.175Z,99873.77
2018-08-04T05:02:11.572Z,99879.90
2018-08-04T05:04:42.555Z,99875.84
2018-08-04T05:07:12.975Z,99881.73
2018-08-04T05:09:43.390Z,99879.70
2018-08-04T05:12:13.787Z,99883.17
2018-08-04T05:14:44.229Z,99881.58
2018-08-04T05:17:14.623Z,99888.56
2018-08-04T05:19:45.078Z,99886.78
2018-08-04T05:22:15.536Z,99888.34
2018-08-04T05:24:45.992Z,99889.05
2018-08-04T05:27:16.436Z,99888.16
2018-08-04T05:29:46.805Z,99886.40
2018-08-04T05:32:17.292Z,99735.48
2018-08-04T05:34:47.711Z,99894.48
2018-08-04T05:37:18.127Z,99885.95
2018-08-04T05:39:48.552Z,99882.73
2018-08-04T05:42:19.008Z,99886.49
2018-08-04T05:44:49.418Z,99888.38
2018-08-04T05:47:19.980Z,99885.45
2018-08-04T05:49:50.406Z,99890.14
2018-08-04T05:52:20.920Z,99896.35
2018-08-04T05:54:51.292Z,99899.98
2018-08-04T05:57:21.719Z,99894.89
2018-08-04T05:59:52.141Z,99896.26
2018-08-04T06:02:22.583Z,99893.59
2018-08-04T06:04:53.016Z,99896.63
2018-08-04T06:07:23.467Z,99894.19
2018-08-04T06:09:54.261Z,99897.92
2018-08-04T06:12:24.829Z,99896.59
2018-08-04T06:14:55.234Z,99889.98
2018-08-04T06:17:25.651Z,99888.85
2018-08-04T06:19:56.023Z,99890.89
2018-08-04T06:22:26.444Z,99897.23
2018-08-04T06:24:56.863Z,99889.30
2018-08-04T06:27:27.353Z,99883.24
2018-08-04T06:29:58.695Z,99887.91
2018-08-04T06:32:29.075Z,99881.42
2018-08-04T06:34:59.564Z,99883.97
2018-08-04T06:37:30.040Z,99889.12
2018-08-04T06:40:00.482Z,99888.06
2018-08-04T06:42:31.012Z,99880.28
2018-08-04T06:45:01.387Z,99881.89
2018-08-04T06:47:31.839Z,99888.61
2018-08-04T06:50:02.253Z,99891.67
2018-08-04T06:52:32.687Z,99893.34
2018-08-04T06:55:03.077Z,99889.59
2018-08-04T06:57:33.580Z,99893.53
2018-08-04T07:00:04.059Z,99892.66
2018-08-04T07:02:34.530Z,99891.71
2018-08-04T07:05:05.084Z,99887.70
2018-08-04T07:07:35.459Z,99888.17
2018-08-04T07:10:06.238Z,99885.84
2018-08-04T07:12:36.666Z,99895.62
2018-08-04T07:15:07.171Z,99890.61
2018-08-04T07:17:37.672Z,99891.48
2018-08-04T07:20:08.241Z,99894.34
2018-08-04T07:22:38.759Z,99886.27
2018-08-04T07:25:09.200Z,99892.55
2018-08-04T07:27:39.647Z,99885.48
2018-08-04T07:30:14.487Z,99888.14
2018-08-04T07:32:45.842Z,99884.84
2018-08-04T07:35:16.286Z,99886.91
2018-08-04T07:37:46.764Z,99886.73
2018-08-04T07:40:17.159Z,99882.66
2018-08-04T07:42:47.622Z,99881.61
2018-08-04T07:45:18.100Z,99885.34
2018-08-04T07:47:48.564Z,99886.63
2018-08-04T07:50:19.075Z,99889.41
2018-08-04T07:52:49.499Z,99885.63
2018-08-04T07:55:19.972Z,99889.63
2018-08-04T07:57:50.348Z,99885.81
2018-08-04T08:00:20.856Z,99884.89
2018-08-04T08:02:51.402Z,99883.52
2018-08-04T08:05:21.858Z,99880.19
2018-08-04T08:07:52.319Z,99878.91
2018-08-04T08:10:22.766Z,99874.19
2018-08-04T08:12:53.351Z,99867.67
2018-08-04T08:15:24.024Z,99868.34
2018-08-04T08:17:54.511Z,99862.61
2018-08-04T08:20:24.996Z,99860.20
2018-08-04T08:22:55.435Z,99865.77
2018-08-04T08:25:25.856Z,99856.48
2018-08-04T08:27:56.349Z,99854.88
2018-08-04T08:30:26.810Z,99849.97
2018-08-04T08:32:57.207Z,99853.88
2018-08-04T08:35:27.756Z,99850.38
2018-08-04T08:37:58.135Z,99848.15
2018-08-04T08:40:28.712Z,99847.55
2018-08-04T08:42:59.105Z,99839.73
2018-08-04T08:45:29.573Z,99835.52
2018-08-04T08:47:59.941Z,99843.66
2018-08-04T08:50:30.379Z,99843.69
2018-08-04T08:53:00.913Z,99847.38
2018-08-04T08:55:31.379Z,99840.48
2018-08-04T08:58:01.729Z,99839.69
2018-08-04T09:00:32.164Z,99829.66
2018-08-04T09:03:02.635Z,99831.84
2018-08-04T09:05:33.076Z,99841.63
2018-08-04T09:08:03.579Z,99837.48
2018-08-04T09:10:33.981Z,99832.28
2018-08-04T09:13:04.508Z,99839.42
2018-08-04T09:15:35.007Z,99840.05
2018-08-04T09:18:05.511Z,99835.21
2018-08-04T09:20:35.955Z,99836.32
2018-08-04T09:23:06.515Z,99829.00
2018-08-04T09:25:36.827Z,99824.85
2018-08-04T09:28:07.484Z,99828.45
2018-08-04T09:30:37.975Z,99833.92
2018-08-04T09:33:08.441Z,99824.38
2018-08-04T09:35:38.925Z,99822.41
2018-08-04T09:38:09.470Z,99819.70
2018-08-04T09:40:39.948Z,99814.45
2018-08-04T09:43:10.439Z,99812.77
2018-08-04T09:45:40.891Z,99815.56
2018-08-04T09:48:11.336Z,99811.69
2018-08-04T09:50:41.842Z,99812.53
2018-08-04T09:53:12.283Z,99812.07
2018-08-04T09:55:42.732Z,99815.33
2018-08-04T09:58:13.202Z,99814.67
2018-08-04T10:00:48.679Z,99812.52
2018-08-04T10:03:19.144Z,99811.76
2018-08-04T10:05:49.592Z,99809.41
2018-08-04T10:08:20.022Z,99817.22
2018-08-04T10:10:50.426Z,99806.81
2018-08-04T10:13:20.799Z,99805.76
2018-08-04T10:15:51.236Z,99809.13
2018-08-04T10:18:21.631Z,99812.55
2018-08-04T10:20:52.103Z,99807.56
2018-08-04T10:23:22.483Z,99805.41
2018-08-04T10:25:52.973Z,99799.30
2018-08-04T10:28:23.411Z,99804.17
2018-08-04T10:30:53.891Z,99794.63
2018-08-04T10:33:24.262Z,99797.34
2018-08-04T10:35:55.034Z,99794.48
2018-08-04T10:38:25.474Z,99796.80
2018-08-04T10:40:55.959Z,99790.17
2018-08-04T10:43:26.463Z,99790.63
2018-08-04T10:45:56.851Z,99788.89
2018-08-04T10:48:27.239Z,99790.66
2018-08-04T10:50:57.671Z,99787.56
2018-08-04T10:53:28.123Z,99785.39
2018-08-04T10:55:58.522Z,99785.66
2018-08-04T10:58:28.923Z,99787.67
2018-08-04T11:00:59.296Z,99789.83
2018-08-04T11:03:29.780Z,99784.23
2018-08-04T11:06:00.209Z,99783.07
2018-08-04T11:08:30.749Z,99780.64
2018-08-04T11:11:01.179Z,99781.23
2018-08-04T11:13:31.590Z,99790.70
2018-08-04T11:16:01.974Z,99786.31
2018-08-04T11:18:32.603Z,99778.80
2018-08-04T11:21:03.170Z,99780.56
2018-08-04T11:23:33.635Z,99781.81
2018-08-04T11:26:04.155Z,99785.66
2018-08-04T11:28:34.599Z,99788.89
2018-08-04T11:31:05.063Z,99781.55
2018-08-04T11:33:35.458Z,99778.59
2018-08-04T11:36:06.033Z,99774.13
2018-08-04T11:38:36.407Z,99773.59
2018-08-04T11:41:07.124Z,99770.60
2018-08-04T11:43:37.557Z,99776.84
2018-08-04T11:46:08.068Z,99762.77
2018-08-04T11:48:38.486Z,99763.38
2018-08-04T11:51:08.948Z,99761.23
2018-08-04T11:53:39.428Z,99761.23
2018-08-04T11:56:09.879Z,99749.16
2018-08-04T11:58:40.283Z,99751.56
2018-08-04T12:01:10.816Z,99747.13
2018-08-04T12:03:41.352Z,99745.47
2018-08-04T12:06:11.735Z,99751.97
2018-08-04T12:08:42.228Z,99748.56
2018-08-04T12:11:12.724Z,99745.50
2018-08-04T12:13:43.183Z,99735.38
2018-08-04T12:16:13.629Z,99734.47
2018-08-04T12:18:44.069Z,99735.95
2018-08-04T12:21:14.471Z,99732.66
2018-08-04T12:23:44.902Z,99729.13
2018-08-04T12:26:15.347Z,99726.58
2018-08-04T12:28:45.775Z,99729.02
2018-08-04T12:31:16.260Z,99722.02
2018-08-04T12:33:46.667Z,99723.66
2018-08-04T12:36:17.116Z,99721.03
2018-08-04T12:38:47.912Z,99713.99
2018-08-04T12:41:18.283Z,99713.92
2018-08-04T12:43:48.727Z,99718.40
2018-08-04T12:46:19.195Z,99711.13
2018-08-04T12:48:49.698Z,99712.19
2018-08-04T12:51:20.067Z,99705.36
2018-08-04T12:53:50.535Z,99715.11
2018-08-04T12:56:20.903Z,99706.48
2018-08-04T12:58:51.344Z,99705.30
2018-08-04T13:01:21.749Z,99702.48
2018-08-04T13:03:52.160Z,99704.69
2018-08-04T13:06:22.574Z,99705.27
2018-08-04T13:08:53.064Z,99701.63
2018-08-04T13:11:23.477Z,99708.62
2018-08-04T13:13:53.882Z,99701.92
2018-08-04T13:16:24.420Z,99703.14
2018-08-04T13:18:54.791Z,99698.86
2018-08-04T13:21:25.212Z,99704.54
2018-08-04T13:23:55.708Z,99702.35
2018-08-04T13:26:26.167Z,99707.62
2018-08-04T13:28:56.535Z,99712.23
2018-08-04T13:31:26.972Z,99706.14
2018-08-04T13:33:57.358Z,99706.42
2018-08-04T13:36:27.762Z,99710.01
2018-08-04T13:38:58.187Z,99709.95
2018-08-04T13:41:28.612Z,99709.93
2018-08-04T13:43:59.064Z,99709.06
2018-08-04T13:46:29.520Z,99710.64
2018-08-04T13:49:00.016Z,99712.89
2018-08-04T13:51:30.463Z,99709.55
2018-08-04T13:54:00.932Z,99717.90
2018-08-04T13:56:31.328Z,99709.36
2018-08-04T13:59:01.753Z,99705.78
2018-08-04T14:01:32.165Z,99698.77
2018-08-04T14:04:02.590Z,99696.84
2018-08-04T14:06:33.101Z,99691.22
2018-08-04T14:09:03.820Z,99699.78
2018-08-04T14:11:34.294Z,99699.29
2018-08-04T14:14:05.009Z,99694.80
2018-08-04T14:16:35.532Z,99691.48
2018-08-04T14:19:05.993Z,99694.38
2018-08-04T14:21:36.428Z,99688.37
2018-08-04T14:24:06.903Z,99685.16
2018-08-04T14:26:37.374Z,99689.82
2018-08-04T14:29:07.838Z,99687.20
2018-08-04T14:31:38.255Z,99688.98
2018-08-04T14:34:08.695Z,99684.57
2018-08-04T14:36:39.147Z,99686.16
2018-08-04T14:39:11.792Z,99680.31
2018-08-04T14:41:42.729Z,99681.78
2018-08-04T14:44:13.111Z,99687.41
2018-08-04T14:46:43.604Z,99686.52
2018-08-04T14:49:13.979Z,99683.23
2018-08-04T14:51:44.520Z,99682.38
2018-08-04T14:54:14.911Z,99683.16
2018-08-04T14:56:45.307Z,99670.23
2018-08-04T14:59:15.692Z,99602.72
2018-08-04T15:01:46.186Z,99671.70
2018-08-04T15:04:16.597Z,99673.48
2018-08-04T15:06:47.039Z,99668.25
2018-08-04T15:09:17.450Z,99668.03
2018-08-04T15:11:47.920Z,99663.53
2018-08-04T15:14:18.395Z,99667.58
2018-08-04T15:16:48.816Z,99666.37
2018-08-04T15:19:19.289Z,99662.58
2018-08-04T15:21:49.672Z,99662.60
2018-08-04T15:24:20.143Z,99664.39
2018-08-04T15:26:50.592Z,99663.40
2018-08-04T15:29:21.039Z,99664.99
2018-08-04T15:31:51.520Z,99669.95
2018-08-04T15:34:22.004Z,99665.63
2018-08-04T15:36:52.496Z,99673.63
2018-08-04T15:39:22.935Z,99665.63
2018-08-04T15:41:53.388Z,99668.97
2018-08-04T15:44:23.803Z,99667.76
2018-08-04T15:46:54.234Z,99672.87
2018-08-04T15:49:24.603Z,99673.91
2018-08-04T15:51:55.037Z,99667.19
2018-08-04T15:54:25.462Z,99670.78
2018-08-04T15:56:55.855Z,99671.77
2018-08-04T15:59:26.294Z,99668.75
2018-08-04T16:01:56.680Z,99665.66
2018-08-04T16:04:27.150Z,99663.18
2018-08-04T16:06:57.647Z,99674.30
2018-08-04T16:09:28.143Z,99671.80
2018-08-04T16:11:58.570Z,99668.92
2018-08-04T16:14:28.955Z,99665.57
2018-08-04T16:16:59.379Z,99667.33
2018-08-04T16:19:29.803Z,99671.98
2018-08-04T16:22:00.233Z,99681.87
2018-08-04T16:24:30.727Z,99680.91
2018-08-04T16:27:01.145Z,99693.03
2018-08-04T16:29:31.540Z,99685.08
2018-08-04T16:32:01.968Z,99686.30
2018-08-04T16:34:32.355Z,99688.18
2018-08-04T16:37:02.846Z,99691.33
2018-08-04T16:39:33.259Z,99687.03
2018-08-04T16:42:03.703Z,99698.02
2018-08-04T16:44:34.207Z,99697.90
2018-08-04T16:47:04.631Z,99689.67
2018-08-04T16:49:35.035Z,99688.82
2018-08-04T16:52:05.428Z,99690.30
2018-08-04T16:54:35.861Z,99693.63
2018-08-04T16:57:06.375Z,99695.94
2018-08-04T16:59:36.880Z,99696.30
2018-08-04T17:02:07.400Z,99691.13
2018-08-04T17:04:38.031Z,99691.28
2018-08-04T17:07:08.399Z,99685.56
2018-08-04T17:09:38.815Z,99694.39
2018-08-04T17:12:09.236Z,99702.70
2018-08-04T17:14:39.625Z,99695.93
2018-08-04T17:17:10.035Z,99698.83
2018-08-04T17:19:40.487Z,99706.42
2018-08-04T17:22:11.060Z,99706.37
2018-08-04T17:24:41.482Z,99705.80
2018-08-04T17:27:11.913Z,99715.40
2018-08-04T17:29:42.304Z,99710.55
2018-08-04T17:32:12.758Z,99712.26
2018-08-04T17:34:43.192Z,99707.80
2018-08-04T17:37:13.633Z,99721.85
2018-08-04T17:39:44.095Z,99725.09
2018-08-04T17:42:14.568Z,99724.57
2018-08-04T17:44:45.148Z,99729.16
2018-08-04T17:47:15.579Z,99739.90
2018-08-04T17:49:46.032Z,99739.27
2018-08-04T17:52:16.558Z,99749.17
2018-08-04T17:54:46.983Z,99739.34
2018-08-04T17:57:17.667Z,99748.20
2018-08-04T17:59:48.079Z,99748.23
2018-08-04T18:02:18.456Z,99748.95
2018-08-04T18:04:48.918Z,99755.69
2018-08-04T18:07:19.375Z,99766.64
2018-08-04T18:09:49.851Z,99777.95
2018-08-04T18:12:20.303Z,99775.53
2018-08-04T18:14:50.679Z,99776.27
2018-08-04T18:17:21.091Z,99786.97
2018-08-04T18:19:51.679Z,99797.84
2018-08-04T18:22:22.103Z,99789.50
2018-08-04T18:24:52.543Z,99792.53
2018-08-04T18:27:22.972Z,99792.54
2018-08-04T18:29:53.413Z,99804.83
2018-08-04T18:32:23.823Z,99811.91
2018-08-04T18:34:54.303Z,99811.11
2018-08-04T18:37:24.704Z,99811.57
2018-08-04T18:39:55.213Z,99808.54
2018-08-04T18:42:25.619Z,99813.44
2018-08-04T18:44:55.983Z,99815.04
2018-08-04T18:47:26.455Z,99809.94
2018-08-04T18:49:56.865Z,99814.58
2018-08-04T18:52:27.262Z,99809.94
2018-08-04T18:54:57.857Z,99817.60
2018-08-04T18:57:28.391Z,99810.86
2018-08-04T18:59:58.874Z,99813.30
2018-08-04T19:02:29.289Z,99810.52
2018-08-04T19:04:59.663Z,99812.84
2018-08-04T19:07:30.182Z,99814.11
2018-08-04T19:10:00.608Z,99806.92
2018-08-04T19:12:31.084Z,99812.50
2018-08-04T19:15:01.564Z,99812.84
2018-08-04T19:17:31.988Z,99809.25
2018-08-04T19:20:02.446Z,99807.52
2018-08-04T19:22:32.889Z,99797.86
2018-08-04T19:25:03.436Z,99804.14
2018-08-04T19:27:33.811Z,99796.70
2018-08-04T19:30:04.365Z,99803.89
2018-08-04T19:32:34.768Z,99802.02
2018-08-04T19:35:05.609Z,99796.23
2018-08-04T19:37:36.098Z,99794.59
2018-08-04T19:40:06.872Z,99799.58
2018-08-04T19:42:37.251Z,99800.97
2018-08-04T19:45:07.731Z,99800.17
2018-08-04T19:47:38.111Z,99801.81
2018-08-04T19:50:08.589Z,99798.77
2018-08-04T19:52:38.982Z,99793.67
2018-08-04T19:55:09.551Z,99798.09
2018-08-04T19:57:39.968Z,99795.55
2018-08-04T20:00:10.355Z,99794.47
2018-08-04T20:02:40.750Z,99795.06
2018-08-04T20:05:11.216Z,99790.67
2018-08-04T20:07:41.662Z,99794.47
2018-08-04T20:10:12.069Z,99797.63
2018-08-04T20:12:42.544Z,99795.78
2018-08-04T20:15:12.956Z,99795.07
2018-08-04T20:17:43.462Z,99801.58
2018-08-04T20:20:13.900Z,99795.91
2018-08-04T20:22:44.303Z,99804.27
2018-08-04T20:25:14.720Z,99809.72
2018-08-04T20:27:45.087Z,99811.45
2018-08-04T20:30:15.455Z,99811.11
2018-08-04T20:32:45.951Z,99810.06
2018-08-04T20:35:16.358Z,99814.95
2018-08-04T20:37:46.769Z,99813.44
2018-08-04T20:40:17.228Z,99816.56
2018-08-04T20:42:47.703Z,99814.61
2018-08-04T20:45:18.115Z,99810.91
2018-08-04T20:47:48.604Z,99809.98
2018-08-04T20:50:19.035Z,99814.37
2018-08-04T20:52:49.808Z,99817.86
2018-08-04T20:55:20.267Z,99821.66
2018-08-04T20:57:50.691Z,99820.98
2018-08-04T21:00:21.080Z,99819.94
2018-08-04T21:02:51.644Z,99828.53
2018-08-04T21:05:22.119Z,99828.27
2018-08-04T21:07:52.539Z,99828.61
2018-08-04T21:10:22.955Z,99835.55
2018-08-04T21:12:53.395Z,99845.60
2018-08-04T21:15:23.895Z,99846.30
2018-08-04T21:17:54.287Z,99847.78
2018-08-04T21:20:24.889Z,99848.35
2018-08-04T21:22:55.272Z,99846.49
2018-08-04T21:25:25.744Z,99844.41
2018-08-04T21:27:56.212Z,99842.90
2018-08-04T21:30:26.591Z,99846.46
2018-08-04T21:32:57.023Z,99848.31
2018-08-04T21:35:27.545Z,99853.31
2018-08-04T21:37:58.111Z,99846.20
2018-08-04T21:40:28.571Z,99855.05
2018-08-04T21:42:58.985Z,99858.50
2018-08-04T21:45:29.431Z,99854.72
2018-08-04T21:47:59.939Z,99853.39
2018-08-04T21:50:30.373Z,99747.93
2018-08-04T21:53:00.756Z,99853.13
2018-08-04T21:55:31.203Z,99852.05
2018-08-04T21:58:01.610Z,99854.02
2018-08-04T22:00:32.080Z,99857.50
2018-08-04T22:03:03.645Z,99865.22
2018-08-04T22:05:34.161Z,99865.33
2018-08-04T22:08:15.395Z,99867.16
2018-08-04T22:10:45.847Z,99869.47
2018-08-04T22:13:16.229Z,99878.58
2018-08-04T22:15:46.677Z,99877.05
2018-08-04T22:18:17.152Z,99878.28
2018-08-04T22:20:47.552Z,99878.20
2018-08-04T22:23:17.980Z,99874.58
2018-08-04T22:25:48.376Z,99876.88
2018-08-04T22:28:18.799Z,99870.38
2018-08-04T22:30:49.212Z,99875.38
2018-08-04T22:33:19.755Z,99884.13
2018-08-04T22:35:50.171Z,99877.63
2018-08-04T22:38:20.628Z,99880.77
2018-08-04T22:40:51.025Z,99885.46
2018-08-04T22:43:21.392Z,99881.44
2018-08-04T22:46:12.035Z,99877.02
2018-08-04T22:48:44.531Z,99874.77
2018-08-04T22:51:15.012Z,99875.35
2018-08-04T22:53:45.399Z,99868.06
2018-08-04T22:56:15.845Z,99868.06
2018-08-04T22:58:46.379Z,99869.03
2018-08-04T23:01:16.857Z,99869.40
2018-08-04T23:06:17.713Z,99861.91
2018-08-04T23:08:48.144Z,99861.50
2018-08-04T23:11:18.575Z,99862.48
2018-08-04T23:13:49.064Z,99865.00
2018-08-04T23:16:19.415Z,99864.83
2018-08-04T23:18:49.780Z,99866.23
2018-08-04T23:21:20.228Z,99862.16
2018-08-04T23:23:50.563Z,99862.50
2018-08-04T23:26:21.008Z,99862.99
2018-08-04T23:28:51.455Z,99864.28
2018-08-04T23:31:21.927Z,99861.44
2018-08-04T23:33:52.395Z,99862.16
2018-08-04T23:36:22.787Z,99857.92
2018-08-04T23:38:53.242Z,99857.67
2018-08-04T23:41:23.789Z,99857.91
2018-08-04T23:43:54.183Z,99857.91
2018-08-04T23:46:24.619Z,99852.71
2018-08-04T23:48:55.264Z,99849.02
2018-08-04T23:51:25.865Z,99847.65
2018-08-04T23:53:56.215Z,99851.48
2018-08-04T23:56:26.679Z,99852.05
2018-08-04T23:58:57.143Z,99842.59
